createdAt,value
2022-07-27T00:00:44.329Z,16.47
2022-07-27T00:01:50.554Z,16.43
2022-07-27T00:02:51.177Z,16.35
2022-07-27T00:03:46.326Z,16.36
2022-07-27T00:04:44.398Z,16.41
2022-07-27T00:05:44.257Z,16.24
2022-07-27T00:06:44.252Z,16.23
2022-07-27T00:07:44.242Z,16.31
2022-07-27T00:08:44.234Z,16.17
2022-07-27T00:09:44.248Z,16.23
2022-07-27T00:10:44.224Z,16.17
2022-07-27T00:11:44.206Z,16.13
2022-07-27T00:12:44.204Z,16.10
2022-07-27T00:13:44.191Z,16.05
2022-07-27T00:14:44.216Z,16.13
2022-07-27T00:15:44.195Z,16.04
2022-07-27T00:16:44.197Z,16.05
2022-07-27T00:17:44.165Z,16.00
2022-07-27T00:18:44.150Z,16.02
2022-07-27T00:19:44.170Z,15.95
2022-07-27T00:20:44.132Z,15.97
2022-07-27T00:21:46.493Z,16.05
2022-07-27T00:22:44.118Z,15.92
2022-07-27T00:23:44.119Z,16.08
2022-07-27T00:24:44.106Z,16.01
2022-07-27T00:25:44.121Z,15.92
2022-07-27T00:26:44.085Z,15.92
2022-07-27T00:27:44.083Z,15.94
2022-07-27T00:28:44.074Z,15.95
2022-07-27T00:29:44.065Z,15.95
2022-07-27T00:30:44.080Z,15.95
2022-07-27T00:31:44.100Z,15.91
2022-07-27T00:32:44.043Z,15.94
2022-07-27T00:33:44.028Z,15.97
2022-07-27T00:34:44.027Z,15.97
2022-07-27T00:35:44.056Z,15.92
2022-07-27T00:36:44.003Z,15.86
2022-07-27T00:37:44.002Z,15.79
2022-07-27T00:38:43.987Z,15.84
2022-07-27T00:39:43.986Z,15.91
2022-07-27T00:40:44.004Z,15.76
2022-07-27T00:41:43.968Z,15.68
2022-07-27T00:42:43.959Z,15.72
2022-07-27T00:43:43.951Z,15.68
2022-07-27T00:44:43.949Z,15.68
2022-07-27T00:45:43.957Z,15.65
2022-07-27T00:46:43.968Z,15.77
2022-07-27T00:47:43.925Z,15.80
2022-07-27T00:48:43.966Z,15.73
2022-07-27T00:49:43.907Z,15.82
2022-07-27T00:50:43.920Z,15.68
2022-07-27T00:51:43.888Z,15.77
2022-07-27T00:52:43.877Z,15.76
2022-07-27T00:53:43.870Z,15.75
2022-07-27T00:54:43.880Z,15.68
2022-07-27T00:55:43.883Z,15.73
2022-07-27T00:56:43.848Z,15.68
2022-07-27T00:57:58.162Z,15.79
2022-07-27T00:58:44.833Z,15.79
2022-07-27T00:59:43.825Z,15.73
2022-07-27T01:00:43.892Z,15.67
2022-07-27T01:01:43.925Z,15.79
2022-07-27T01:02:45.719Z,15.73
2022-07-27T01:03:43.799Z,15.67
2022-07-27T01:04:43.791Z,15.67
2022-07-27T01:05:44.219Z,15.72
2022-07-27T01:06:43.788Z,15.72
2022-07-27T01:07:43.765Z,15.72
2022-07-27T01:08:43.760Z,15.72
2022-07-27T01:09:43.750Z,15.75
2022-07-27T01:10:43.824Z,15.68
2022-07-27T01:11:43.823Z,15.68
2022-07-27T01:12:43.727Z,15.67
2022-07-27T01:13:43.718Z,15.70
2022-07-27T01:14:43.712Z,15.65
2022-07-27T01:15:43.850Z,15.67
2022-07-27T01:16:43.695Z,15.62
2022-07-27T01:17:43.684Z,15.62
2022-07-27T01:18:43.679Z,15.58
2022-07-27T01:19:43.666Z,15.58
2022-07-27T01:20:43.694Z,15.58
2022-07-27T01:21:43.654Z,15.55
2022-07-27T01:22:43.648Z,15.57
2022-07-27T01:23:43.642Z,15.51
2022-07-27T01:24:43.637Z,15.55
2022-07-27T01:25:43.650Z,15.58
2022-07-27T01:26:43.617Z,15.62
2022-07-27T01:27:43.615Z,15.49
2022-07-27T01:28:43.610Z,15.57
2022-07-27T01:29:43.603Z,15.57
2022-07-27T01:30:43.619Z,15.49
2022-07-27T01:31:43.643Z,15.55
2022-07-27T01:32:43.604Z,15.54
2022-07-27T01:33:43.574Z,15.54
2022-07-27T01:34:43.594Z,15.52
2022-07-27T01:35:43.557Z,15.54
2022-07-27T01:36:43.552Z,15.49
2022-07-27T01:37:47.601Z,15.57
2022-07-27T01:38:43.536Z,15.49
2022-07-27T01:39:44.560Z,15.54
2022-07-27T01:40:43.518Z,15.59
2022-07-27T01:41:43.513Z,15.57
2022-07-27T01:42:43.506Z,15.59
2022-07-27T01:43:43.496Z,15.54
2022-07-27T01:44:43.514Z,15.59
2022-07-27T01:45:43.481Z,15.58
2022-07-27T01:46:43.490Z,15.64
2022-07-27T01:47:43.466Z,15.58
2022-07-27T01:48:43.528Z,15.62
2022-07-27T01:49:43.470Z,15.57
2022-07-27T01:50:43.709Z,15.59
2022-07-27T01:51:43.431Z,15.54
2022-07-27T01:52:43.424Z,15.54
2022-07-27T01:53:43.415Z,15.57
2022-07-27T01:54:43.406Z,15.54
2022-07-27T01:55:43.430Z,15.46
2022-07-27T01:56:43.386Z,15.40
2022-07-27T01:57:43.382Z,15.39
2022-07-27T01:58:43.372Z,15.42
2022-07-27T01:59:43.398Z,15.39
2022-07-27T02:00:43.358Z,15.33
2022-07-27T02:01:43.472Z,15.39
2022-07-27T02:02:43.347Z,15.39
2022-07-27T02:03:43.337Z,15.35
2022-07-27T02:04:43.325Z,15.36
2022-07-27T02:05:43.525Z,15.40
2022-07-27T02:06:43.311Z,15.49
2022-07-27T02:07:43.298Z,15.43
2022-07-27T02:08:43.295Z,15.39
2022-07-27T02:09:43.284Z,15.40
2022-07-27T02:10:43.300Z,15.36
2022-07-27T02:11:43.271Z,15.35
2022-07-27T02:12:43.265Z,15.31
2022-07-27T02:13:43.238Z,15.35
2022-07-27T02:14:44.245Z,15.31
2022-07-27T02:15:44.508Z,15.39
2022-07-27T02:16:43.344Z,15.37
2022-07-27T02:17:43.223Z,15.42
2022-07-27T02:18:43.215Z,15.35
2022-07-27T02:19:43.210Z,15.44
2022-07-27T02:20:43.226Z,15.54
2022-07-27T02:21:43.187Z,15.39
2022-07-27T02:22:43.183Z,15.36
2022-07-27T02:23:43.176Z,15.43
2022-07-27T02:24:43.171Z,15.43
2022-07-27T02:25:43.190Z,15.37
2022-07-27T02:26:43.146Z,15.47
2022-07-27T02:27:43.147Z,15.39
2022-07-27T02:28:43.136Z,15.46
2022-07-27T02:29:43.133Z,15.52
2022-07-27T02:30:43.150Z,15.40
2022-07-27T02:31:43.116Z,15.35
2022-07-27T02:32:44.395Z,15.44
2022-07-27T02:33:43.102Z,15.40
2022-07-27T02:34:43.086Z,15.37
2022-07-27T02:35:44.111Z,15.33
2022-07-27T02:36:43.078Z,15.40
2022-07-27T02:37:43.066Z,15.33
2022-07-27T02:38:43.058Z,15.43
2022-07-27T02:39:43.053Z,15.44
2022-07-27T02:40:43.069Z,15.35
2022-07-27T02:41:43.032Z,15.33
2022-07-27T02:42:43.027Z,15.33
2022-07-27T02:43:43.022Z,15.29
2022-07-27T02:44:43.022Z,15.29
2022-07-27T02:45:43.029Z,15.37
2022-07-27T02:46:43.037Z,15.29
2022-07-27T02:47:42.992Z,15.37
2022-07-27T02:48:43.028Z,15.36
2022-07-27T02:49:42.975Z,15.40
2022-07-27T02:50:42.988Z,15.37
2022-07-27T02:51:42.956Z,15.40
2022-07-27T02:52:42.949Z,15.39
2022-07-27T02:53:42.939Z,15.42
2022-07-27T02:54:42.934Z,15.39
2022-07-27T02:55:42.948Z,15.37
2022-07-27T02:56:43.009Z,15.31
2022-07-27T02:57:42.913Z,15.33
2022-07-27T02:58:42.901Z,15.25
2022-07-27T02:59:42.898Z,15.25
2022-07-27T03:00:42.916Z,15.29
2022-07-27T03:01:42.919Z,15.25
2022-07-27T03:02:42.871Z,15.33
2022-07-27T03:03:42.866Z,15.27
2022-07-27T03:04:42.875Z,15.28
2022-07-27T03:05:42.880Z,15.37
2022-07-27T03:06:42.846Z,15.37
2022-07-27T03:07:42.833Z,15.36
2022-07-27T03:08:42.821Z,15.22
2022-07-27T03:09:42.813Z,15.35
2022-07-27T03:10:48.778Z,15.28
2022-07-27T03:11:43.803Z,15.31
2022-07-27T03:12:42.781Z,15.27
2022-07-27T03:13:42.785Z,15.36
2022-07-27T03:14:42.797Z,15.42
2022-07-27T03:15:42.820Z,15.40
2022-07-27T03:16:42.757Z,15.37
2022-07-27T03:17:42.753Z,15.42
2022-07-27T03:18:42.743Z,15.37
2022-07-27T03:19:42.734Z,15.42
2022-07-27T03:20:42.760Z,15.35
2022-07-27T03:21:42.723Z,15.46
2022-07-27T03:22:42.710Z,15.46
2022-07-27T03:23:42.701Z,15.29
2022-07-27T03:24:42.716Z,15.37
2022-07-27T03:25:42.710Z,15.39
2022-07-27T03:26:42.678Z,15.33
2022-07-27T03:27:42.667Z,15.40
2022-07-27T03:28:42.666Z,15.40
2022-07-27T03:29:42.655Z,15.36
2022-07-27T03:30:42.710Z,15.39
2022-07-27T03:31:42.635Z,15.36
2022-07-27T03:32:42.627Z,15.31
2022-07-27T03:33:42.621Z,15.33
2022-07-27T03:34:42.616Z,15.33
2022-07-27T03:35:42.630Z,15.25
2022-07-27T03:36:42.608Z,15.25
2022-07-27T03:37:42.588Z,15.27
2022-07-27T03:38:42.578Z,15.29
2022-07-27T03:39:42.579Z,15.22
2022-07-27T03:40:42.591Z,15.24
2022-07-27T03:41:42.558Z,15.33
2022-07-27T03:42:42.547Z,15.35
2022-07-27T03:43:42.553Z,15.33
2022-07-27T03:44:42.538Z,15.35
2022-07-27T03:45:42.598Z,15.36
2022-07-27T03:46:42.520Z,15.36
2022-07-27T03:47:42.520Z,15.29
2022-07-27T03:48:42.555Z,15.44
2022-07-27T03:49:42.500Z,15.47
2022-07-27T03:50:42.514Z,15.36
2022-07-27T03:51:42.484Z,15.54
2022-07-27T03:52:45.712Z,15.49
2022-07-27T03:53:42.464Z,15.43
2022-07-27T03:54:42.457Z,15.57
2022-07-27T03:55:42.470Z,15.51
2022-07-27T03:56:42.442Z,15.52
2022-07-27T03:57:42.437Z,15.57
2022-07-27T03:58:42.421Z,15.61
2022-07-27T03:59:42.418Z,15.67
2022-07-27T04:00:42.435Z,15.54
2022-07-27T04:01:42.520Z,15.62
2022-07-27T04:02:42.474Z,15.54
2022-07-27T04:03:44.338Z,15.57
2022-07-27T04:04:43.381Z,15.64
2022-07-27T04:05:42.403Z,15.67
2022-07-27T04:06:42.363Z,15.64
2022-07-27T04:07:42.351Z,15.67
2022-07-27T04:08:42.351Z,15.67
2022-07-27T04:09:42.357Z,15.73
2022-07-27T04:10:42.360Z,15.79
2022-07-27T04:11:43.625Z,15.70
2022-07-27T04:12:43.313Z,15.76
2022-07-27T04:13:42.309Z,15.72
2022-07-27T04:14:42.305Z,15.75
2022-07-27T04:15:42.316Z,15.77
2022-07-27T04:16:42.348Z,15.76
2022-07-27T04:17:54.662Z,15.70
2022-07-27T04:18:43.270Z,15.77
2022-07-27T04:19:42.258Z,15.79
2022-07-27T04:20:42.254Z,15.73
2022-07-27T04:21:42.271Z,15.67
2022-07-27T04:22:42.232Z,15.76
2022-07-27T04:23:42.228Z,15.70
2022-07-27T04:24:42.215Z,15.75
2022-07-27T04:25:42.213Z,15.75
2022-07-27T04:26:42.226Z,15.75
2022-07-27T04:27:42.203Z,15.79
2022-07-27T04:28:42.189Z,15.82
2022-07-27T04:29:42.181Z,15.84
2022-07-27T04:30:42.217Z,15.83
2022-07-27T04:31:43.194Z,15.86
2022-07-27T04:32:42.158Z,15.82
2022-07-27T04:33:42.155Z,15.76
2022-07-27T04:34:42.137Z,15.95
2022-07-27T04:35:42.136Z,15.83
2022-07-27T04:36:42.146Z,15.95
2022-07-27T04:37:57.877Z,15.90
2022-07-27T04:38:43.107Z,15.97
2022-07-27T04:39:42.098Z,15.94
2022-07-27T04:40:42.091Z,16.01
2022-07-27T04:41:42.106Z,16.12
2022-07-27T04:42:49.488Z,16.05
2022-07-27T04:43:43.073Z,16.16
2022-07-27T04:44:42.061Z,16.20
2022-07-27T04:45:42.111Z,16.16
2022-07-27T04:46:42.074Z,16.16
2022-07-27T04:47:42.034Z,16.15
2022-07-27T04:48:42.109Z,16.26
2022-07-27T04:49:43.019Z,16.21
2022-07-27T04:50:42.021Z,16.23
2022-07-27T04:51:42.031Z,16.23
2022-07-27T04:52:41.996Z,16.31
2022-07-27T04:53:53.827Z,16.31
2022-07-27T04:54:42.974Z,16.21
2022-07-27T04:55:41.966Z,16.29
2022-07-27T04:56:41.987Z,16.36
2022-07-27T04:57:41.966Z,16.32
2022-07-27T04:58:41.945Z,16.33
2022-07-27T04:59:41.934Z,16.36
2022-07-27T05:00:41.936Z,16.42
2022-07-27T05:01:41.997Z,16.36
2022-07-27T05:02:41.916Z,16.46
2022-07-27T05:03:41.940Z,16.42
2022-07-27T05:04:41.904Z,16.47
2022-07-27T05:05:49.774Z,16.54
2022-07-27T05:06:42.906Z,16.47
2022-07-27T05:07:41.872Z,16.32
2022-07-27T05:08:41.869Z,16.26
2022-07-27T05:09:41.859Z,16.41
2022-07-27T05:10:41.856Z,16.42
2022-07-27T05:11:41.873Z,16.38
2022-07-27T05:12:42.837Z,16.38
2022-07-27T05:13:41.828Z,16.32
2022-07-27T05:14:41.824Z,16.41
2022-07-27T05:15:54.967Z,16.46
2022-07-27T05:16:42.897Z,16.47
2022-07-27T05:17:41.807Z,16.39
2022-07-27T05:18:41.796Z,16.51
2022-07-27T05:19:41.782Z,16.49
2022-07-27T05:20:41.779Z,16.49
2022-07-27T05:21:41.804Z,16.46
2022-07-27T05:22:41.814Z,16.54
2022-07-27T05:23:41.750Z,16.56
2022-07-27T05:24:41.809Z,16.51
2022-07-27T05:25:41.735Z,16.61
2022-07-27T05:26:41.729Z,16.61
2022-07-27T05:27:54.679Z,16.60
2022-07-27T05:28:42.715Z,16.64
2022-07-27T05:29:41.705Z,16.61
2022-07-27T05:30:41.696Z,16.66
2022-07-27T05:31:41.708Z,16.76
2022-07-27T05:32:41.711Z,16.69
2022-07-27T05:33:45.197Z,16.69
2022-07-27T05:34:43.663Z,16.60
2022-07-27T05:35:41.664Z,16.53
2022-07-27T05:36:41.652Z,16.56
2022-07-27T05:37:41.663Z,16.54
2022-07-27T05:38:41.631Z,16.51
2022-07-27T05:39:41.625Z,16.56
2022-07-27T05:40:41.629Z,16.56
2022-07-27T05:41:41.604Z,16.56
2022-07-27T05:42:41.632Z,16.57
2022-07-27T05:43:41.589Z,16.66
2022-07-27T05:44:41.580Z,16.69
2022-07-27T05:45:41.646Z,16.89
2022-07-27T05:46:41.570Z,16.81
2022-07-27T05:47:41.588Z,16.90
2022-07-27T05:48:41.599Z,16.86
2022-07-27T05:49:41.545Z,16.86
2022-07-27T05:50:41.534Z,16.91
2022-07-27T05:51:41.529Z,17.01
2022-07-27T05:52:41.545Z,17.02
2022-07-27T05:53:41.511Z,17.05
2022-07-27T05:54:41.499Z,17.08
2022-07-27T05:55:58.350Z,17.15
2022-07-27T05:56:42.483Z,17.38
2022-07-27T05:57:41.501Z,17.49
2022-07-27T05:58:41.482Z,17.57
2022-07-27T05:59:41.464Z,17.76
2022-07-27T06:00:41.502Z,17.87
2022-07-27T06:01:41.443Z,18.10
2022-07-27T06:02:41.462Z,18.41
2022-07-27T06:03:41.498Z,18.45
2022-07-27T06:04:41.428Z,18.29
2022-07-27T06:05:41.413Z,18.23
2022-07-27T06:06:41.407Z,18.26
2022-07-27T06:07:41.421Z,18.63
2022-07-27T06:08:41.389Z,18.71
2022-07-27T06:09:41.380Z,18.55
2022-07-27T06:10:41.376Z,18.40
2022-07-27T06:11:41.369Z,18.16
2022-07-27T06:12:41.387Z,18.00
2022-07-27T06:13:42.144Z,18.07
2022-07-27T06:14:41.341Z,18.15
2022-07-27T06:15:41.338Z,18.22
2022-07-27T06:16:41.361Z,18.31
2022-07-27T06:17:41.353Z,18.43
2022-07-27T06:18:41.314Z,18.49
2022-07-27T06:19:41.328Z,18.40
2022-07-27T06:20:41.307Z,18.44
2022-07-27T06:21:41.290Z,18.41
2022-07-27T06:22:41.312Z,18.40
2022-07-27T06:23:41.270Z,18.35
2022-07-27T06:24:41.269Z,18.47
2022-07-27T06:25:41.263Z,18.41
2022-07-27T06:26:41.246Z,18.75
2022-07-27T06:27:41.267Z,18.86
2022-07-27T06:28:41.236Z,18.68
2022-07-27T06:29:41.250Z,18.49
2022-07-27T06:30:41.214Z,18.43
2022-07-27T06:31:42.778Z,18.25
2022-07-27T06:32:42.222Z,18.18
2022-07-27T06:33:41.192Z,18.28
2022-07-27T06:34:43.162Z,18.23
2022-07-27T06:35:42.179Z,18.15
2022-07-27T06:36:41.170Z,18.19
2022-07-27T06:37:41.180Z,18.31
2022-07-27T06:38:41.150Z,18.45
2022-07-27T06:39:41.138Z,18.58
2022-07-27T06:40:41.132Z,18.65
2022-07-27T06:41:41.121Z,18.90
2022-07-27T06:42:41.142Z,19.14
2022-07-27T06:43:41.110Z,19.51
2022-07-27T06:44:41.093Z,19.55
2022-07-27T06:45:41.091Z,19.29
2022-07-27T06:46:41.124Z,18.95
2022-07-27T06:47:49.045Z,18.75
2022-07-27T06:48:42.107Z,18.53
2022-07-27T06:49:41.060Z,18.44
2022-07-27T06:50:41.058Z,18.44
2022-07-27T06:51:41.045Z,19.00
2022-07-27T06:52:41.050Z,18.88
2022-07-27T06:53:42.033Z,18.78
2022-07-27T06:54:41.019Z,18.70
2022-07-27T06:55:41.021Z,18.60
2022-07-27T06:56:41.005Z,18.59
2022-07-27T06:57:41.016Z,18.60
2022-07-27T06:58:41.987Z,18.74
2022-07-27T06:59:43.409Z,18.86
2022-07-27T07:00:41.012Z,18.62
2022-07-27T07:01:43.410Z,18.43
2022-07-27T07:02:41.983Z,18.26
2022-07-27T07:03:41.005Z,18.07
2022-07-27T07:04:40.943Z,17.94
2022-07-27T07:05:40.936Z,17.80
2022-07-27T07:06:40.926Z,17.71
2022-07-27T07:07:40.922Z,17.76
2022-07-27T07:08:40.931Z,17.71
2022-07-27T07:09:40.908Z,17.72
2022-07-27T07:10:40.887Z,17.70
2022-07-27T07:11:40.930Z,17.78
2022-07-27T07:12:40.892Z,17.86
2022-07-27T07:13:44.762Z,17.94
2022-07-27T07:14:41.859Z,17.98
2022-07-27T07:15:40.849Z,17.94
2022-07-27T07:16:40.860Z,17.94
2022-07-27T07:17:40.842Z,17.97
2022-07-27T07:18:40.867Z,18.03
2022-07-27T07:19:40.829Z,18.01
2022-07-27T07:20:40.816Z,18.28
2022-07-27T07:21:40.801Z,18.34
2022-07-27T07:22:40.790Z,18.26
2022-07-27T07:23:40.810Z,18.18
2022-07-27T07:24:40.781Z,18.16
2022-07-27T07:25:40.821Z,18.20
2022-07-27T07:26:40.795Z,18.49
2022-07-27T07:27:40.752Z,18.71
2022-07-27T07:28:40.766Z,18.68
2022-07-27T07:29:40.742Z,18.47
2022-07-27T07:30:40.732Z,18.49
2022-07-27T07:31:40.753Z,18.40
2022-07-27T07:32:40.709Z,18.25
2022-07-27T07:33:41.728Z,18.29
2022-07-27T07:34:40.698Z,18.49
2022-07-27T07:36:13.960Z,18.62
2022-07-27T07:36:41.704Z,18.56
2022-07-27T07:37:40.672Z,18.49
2022-07-27T07:38:40.688Z,18.41
2022-07-27T07:39:40.658Z,18.43
2022-07-27T07:40:43.729Z,18.33
2022-07-27T07:41:41.644Z,18.41
2022-07-27T07:42:40.634Z,18.44
2022-07-27T07:43:40.651Z,18.56
2022-07-27T07:44:40.630Z,18.60
2022-07-27T07:45:50.268Z,18.50
2022-07-27T07:46:46.822Z,18.29
2022-07-27T07:47:42.593Z,18.37
2022-07-27T07:48:40.654Z,18.43
2022-07-27T07:49:40.643Z,18.52
2022-07-27T07:50:40.572Z,18.53
2022-07-27T07:51:40.557Z,18.49
2022-07-27T07:52:40.551Z,18.38
2022-07-27T07:53:41.561Z,18.37
2022-07-27T07:54:41.541Z,18.38
2022-07-27T07:55:40.537Z,18.49
2022-07-27T07:56:40.525Z,18.55
2022-07-27T07:57:40.527Z,18.65
2022-07-27T07:58:40.535Z,18.75
2022-07-27T07:59:40.502Z,18.74
2022-07-27T08:00:40.496Z,18.75
2022-07-27T08:01:40.562Z,18.78
2022-07-27T08:02:40.520Z,18.74
2022-07-27T08:03:40.494Z,18.83
2022-07-27T08:04:40.466Z,19.00
2022-07-27T08:05:40.457Z,19.02
2022-07-27T08:06:40.440Z,19.07
2022-07-27T08:07:40.442Z,19.92
2022-07-27T08:08:40.459Z,21.27
2022-07-27T08:09:40.426Z,22.25
2022-07-27T08:10:40.429Z,22.44
2022-07-27T08:11:40.402Z,23.00
2022-07-27T08:12:40.405Z,22.85
2022-07-27T08:13:40.416Z,22.51
2022-07-27T08:14:40.384Z,22.33
2022-07-27T08:15:40.558Z,22.83
2022-07-27T08:16:40.445Z,23.37
2022-07-27T08:17:40.374Z,23.12
2022-07-27T08:18:40.374Z,22.32
2022-07-27T08:19:40.568Z,21.93
2022-07-27T08:20:41.428Z,21.57
2022-07-27T08:21:40.330Z,21.57
2022-07-27T08:22:40.319Z,21.64
2022-07-27T08:23:40.338Z,21.37
2022-07-27T08:24:40.305Z,20.65
2022-07-27T08:25:40.284Z,20.52
2022-07-27T08:26:41.294Z,20.24
2022-07-27T08:27:41.030Z,20.10
2022-07-27T08:28:40.294Z,19.82
2022-07-27T08:29:40.263Z,19.58
2022-07-27T08:30:40.256Z,19.71
2022-07-27T08:31:51.314Z,19.91
2022-07-27T08:32:41.240Z,20.56
2022-07-27T08:33:40.994Z,20.62
2022-07-27T08:34:40.228Z,20.31
2022-07-27T08:35:40.212Z,20.13
2022-07-27T08:36:40.207Z,19.79
2022-07-27T08:37:40.196Z,19.84
2022-07-27T08:38:40.228Z,19.85
2022-07-27T08:40:44.959Z,20.21
2022-07-27T08:41:41.991Z,20.24
2022-07-27T08:42:40.157Z,20.13
2022-07-27T08:43:40.184Z,20.00
2022-07-27T08:44:40.146Z,20.03
2022-07-27T08:45:40.137Z,19.96
2022-07-27T08:46:40.190Z,19.66
2022-07-27T08:47:40.120Z,19.51
2022-07-27T08:48:40.155Z,19.66
2022-07-27T08:49:43.720Z,19.74
2022-07-27T08:50:42.301Z,19.58
2022-07-27T08:51:42.800Z,19.82
2022-07-27T08:52:42.085Z,20.22
2022-07-27T08:53:53.445Z,20.51
2022-07-27T08:54:41.092Z,20.67
2022-07-27T08:55:40.061Z,20.69
2022-07-27T08:56:40.049Z,20.84
2022-07-27T08:57:40.035Z,20.80
2022-07-27T08:58:40.028Z,20.78
2022-07-27T08:59:40.046Z,21.83
2022-07-27T09:00:40.010Z,23.20
2022-07-27T09:01:40.104Z,24.18
2022-07-27T09:02:40.056Z,24.54
2022-07-27T09:03:40.011Z,24.78
2022-07-27T09:04:40.006Z,24.20
2022-07-27T09:05:39.985Z,24.05
2022-07-27T09:06:39.973Z,23.58
2022-07-27T09:07:40.000Z,23.09
2022-07-27T09:08:39.953Z,22.39
2022-07-27T09:09:39.973Z,21.72
2022-07-27T09:10:39.938Z,21.42
2022-07-27T09:11:39.948Z,21.02
2022-07-27T09:12:39.925Z,20.77
2022-07-27T09:13:39.916Z,20.95
2022-07-27T09:14:39.935Z,20.88
2022-07-27T09:16:03.137Z,20.82
2022-07-27T09:17:28.512Z,20.93
2022-07-27T09:17:48.598Z,20.81
2022-07-27T09:18:41.886Z,20.37
2022-07-27T09:19:39.893Z,20.24
2022-07-27T09:20:39.867Z,20.52
2022-07-27T09:21:39.871Z,20.58
2022-07-27T09:22:39.859Z,20.36
2022-07-27T09:23:39.858Z,20.04
2022-07-27T09:24:47.922Z,20.02
2022-07-27T09:26:41.817Z,20.14
2022-07-27T09:27:39.812Z,20.07
2022-07-27T09:28:39.830Z,20.28
2022-07-27T09:29:39.818Z,20.63
2022-07-27T09:30:39.928Z,20.85
2022-07-27T09:31:39.838Z,21.43
2022-07-27T09:32:39.768Z,21.82
2022-07-27T09:33:39.760Z,21.64
2022-07-27T09:34:39.824Z,21.45
2022-07-27T09:35:39.745Z,21.55
2022-07-27T09:36:39.742Z,21.75
2022-07-27T09:37:39.730Z,21.76
2022-07-27T09:38:39.720Z,21.70
2022-07-27T09:39:39.746Z,21.82
2022-07-27T09:40:39.710Z,21.51
2022-07-27T09:41:39.697Z,21.06
2022-07-27T09:43:12.486Z,21.22
2022-07-27T09:44:28.748Z,21.57
2022-07-27T09:44:43.771Z,21.96
2022-07-27T09:45:39.674Z,22.22
2022-07-27T09:46:39.726Z,22.43
2022-07-27T09:47:39.655Z,22.68
2022-07-27T09:48:39.719Z,22.48
2022-07-27T09:49:39.668Z,22.18
2022-07-27T09:50:48.721Z,22.33
2022-07-27T09:52:10.300Z,22.38
2022-07-27T09:52:41.619Z,22.41
2022-07-27T09:53:43.335Z,22.06
2022-07-27T09:54:40.655Z,21.43
2022-07-27T09:55:39.593Z,21.12
2022-07-27T09:56:39.582Z,20.97
2022-07-27T09:57:39.579Z,20.85
2022-07-27T09:58:39.572Z,20.87
2022-07-27T09:59:39.594Z,20.75
2022-07-27T10:00:39.555Z,20.44
2022-07-27T10:01:46.737Z,20.55
2022-07-27T10:02:41.543Z,20.36
2022-07-27T10:03:39.533Z,20.13
2022-07-27T10:04:39.616Z,20.07
2022-07-27T10:05:39.516Z,20.06
2022-07-27T10:07:01.216Z,20.19
2022-07-27T10:07:41.504Z,20.24
2022-07-27T10:08:39.493Z,20.37
2022-07-27T10:09:39.524Z,20.62
2022-07-27T10:10:39.485Z,20.97
2022-07-27T10:11:39.478Z,21.46
2022-07-27T10:12:39.510Z,21.83
2022-07-27T10:13:43.637Z,21.91
2022-07-27T10:14:39.477Z,22.10
2022-07-27T10:15:39.473Z,21.93
2022-07-27T10:16:39.435Z,21.69
2022-07-27T10:17:39.432Z,21.61
2022-07-27T10:18:39.423Z,21.54
2022-07-27T10:19:39.445Z,21.32
2022-07-27T10:20:39.405Z,21.12
2022-07-27T10:21:39.392Z,20.81
2022-07-27T10:22:39.390Z,20.29
2022-07-27T10:23:39.384Z,20.03
2022-07-27T10:24:39.399Z,20.03
2022-07-27T10:25:39.373Z,19.86
2022-07-27T10:26:39.363Z,20.03
2022-07-27T10:27:39.353Z,20.24
2022-07-27T10:28:39.341Z,20.31
2022-07-27T10:29:39.369Z,20.32
2022-07-27T10:30:39.399Z,20.40
2022-07-27T10:31:39.384Z,20.36
2022-07-27T10:32:39.311Z,20.41
2022-07-27T10:33:39.303Z,20.56
2022-07-27T10:34:39.298Z,20.55
2022-07-27T10:35:39.317Z,20.48
2022-07-27T10:36:39.280Z,20.55
2022-07-27T10:37:39.280Z,20.80
2022-07-27T10:38:39.265Z,21.07
2022-07-27T10:39:39.256Z,21.27
2022-07-27T10:40:39.277Z,21.64
2022-07-27T10:41:39.242Z,22.11
2022-07-27T10:42:39.233Z,22.47
2022-07-27T10:43:39.228Z,22.81
2022-07-27T10:44:39.230Z,22.88
2022-07-27T10:46:00.083Z,22.44
2022-07-27T10:46:40.237Z,21.92
2022-07-27T10:47:39.193Z,21.80
2022-07-27T10:48:44.206Z,21.39
2022-07-27T10:49:41.704Z,21.36
2022-07-27T10:50:39.200Z,21.22
2022-07-27T10:51:39.165Z,21.09
2022-07-27T10:52:39.154Z,20.95
2022-07-27T10:54:09.353Z,20.99
2022-07-27T10:54:41.138Z,21.25
2022-07-27T10:55:39.157Z,21.75
2022-07-27T10:56:39.121Z,21.98
2022-07-27T10:57:39.117Z,22.22
2022-07-27T10:58:39.104Z,22.06
2022-07-27T11:00:06.943Z,21.91
2022-07-27T11:00:41.128Z,22.08
2022-07-27T11:01:39.190Z,21.82
2022-07-27T11:02:40.108Z,21.72
2022-07-27T11:03:42.454Z,21.82
2022-07-27T11:04:39.096Z,22.20
2022-07-27T11:06:00.073Z,22.54
2022-07-27T11:07:15.016Z,22.47
2022-07-27T11:07:46.285Z,22.45
2022-07-27T11:08:47.037Z,22.15
2022-07-27T11:10:10.035Z,21.99
2022-07-27T11:10:41.038Z,21.82
2022-07-27T11:11:39.010Z,21.54
2022-07-27T11:12:38.995Z,21.30
2022-07-27T11:13:39.149Z,21.29
2022-07-27T11:14:38.982Z,21.32
2022-07-27T11:15:38.999Z,21.45
2022-07-27T11:16:54.531Z,21.33
2022-07-27T11:17:56.774Z,21.42
2022-07-27T11:18:40.958Z,21.66
2022-07-27T11:19:38.944Z,21.51
2022-07-27T11:20:38.960Z,21.72
2022-07-27T11:21:38.921Z,21.36
2022-07-27T11:23:09.050Z,21.20
2022-07-27T11:23:50.938Z,21.45
2022-07-27T11:24:40.904Z,21.89
2022-07-27T11:25:38.918Z,22.22
2022-07-27T11:26:38.891Z,22.55
2022-07-27T11:27:38.879Z,22.69
2022-07-27T11:28:38.875Z,22.87
2022-07-27T11:29:43.547Z,23.03
2022-07-27T11:30:39.955Z,23.13
2022-07-27T11:31:54.662Z,22.93
2022-07-27T11:32:40.854Z,22.88
2022-07-27T11:33:38.839Z,22.81
2022-07-27T11:34:38.831Z,22.80
2022-07-27T11:35:38.854Z,22.76
2022-07-27T11:36:38.817Z,22.75
2022-07-27T11:37:38.803Z,22.55
2022-07-27T11:38:38.799Z,22.83
2022-07-27T11:41:07.188Z,22.72
2022-07-27T11:42:08.129Z,22.44
2022-07-27T11:42:40.777Z,22.28
2022-07-27T11:43:38.763Z,22.20
2022-07-27T11:44:38.771Z,22.02
2022-07-27T11:45:38.826Z,21.77
2022-07-27T11:46:38.744Z,21.64
2022-07-27T11:47:38.742Z,21.52
2022-07-27T11:49:03.911Z,21.45
2022-07-27T11:49:40.740Z,21.45
2022-07-27T11:50:38.744Z,21.69
2022-07-27T11:51:38.712Z,21.64
2022-07-27T11:52:38.698Z,21.54
2022-07-27T11:53:38.685Z,21.54
2022-07-27T11:54:38.681Z,21.75
2022-07-27T11:55:38.699Z,21.77
2022-07-27T11:56:38.668Z,22.04
2022-07-27T11:57:38.660Z,22.22
2022-07-27T11:58:38.664Z,22.44
2022-07-27T11:59:38.647Z,22.47
2022-07-27T12:00:38.672Z,22.83
2022-07-27T12:01:38.626Z,22.93
2022-07-27T12:02:38.656Z,23.23
2022-07-27T12:03:47.597Z,23.34
2022-07-27T12:04:39.652Z,23.44
2022-07-27T12:05:38.683Z,23.41
2022-07-27T12:06:38.594Z,22.80
2022-07-27T12:07:38.582Z,22.30
2022-07-27T12:08:38.575Z,22.04
2022-07-27T12:09:39.099Z,22.08
2022-07-27T12:10:38.561Z,21.96
2022-07-27T12:11:38.576Z,21.82
2022-07-27T12:12:38.555Z,21.92
2022-07-27T12:13:38.538Z,22.11
2022-07-27T12:14:38.529Z,22.18
2022-07-27T12:15:46.816Z,22.11
2022-07-27T12:16:40.599Z,22.14
2022-07-27T12:17:38.508Z,22.06
2022-07-27T12:18:38.503Z,22.15
2022-07-27T12:19:38.496Z,22.29
2022-07-27T12:20:38.480Z,22.25
2022-07-27T12:21:38.500Z,22.08
2022-07-27T12:22:38.473Z,22.10
2022-07-27T12:23:38.459Z,22.08
2022-07-27T12:24:38.450Z,22.20
2022-07-27T12:25:38.451Z,22.06
2022-07-27T12:26:38.469Z,22.26
2022-07-27T12:27:38.438Z,22.39
2022-07-27T12:28:38.426Z,22.59
2022-07-27T12:29:38.414Z,22.22
2022-07-27T12:30:38.459Z,21.96
2022-07-27T12:31:38.422Z,21.89
2022-07-27T12:32:38.389Z,22.04
2022-07-27T12:33:38.391Z,22.41
2022-07-27T12:34:38.375Z,22.69
2022-07-27T12:35:41.733Z,22.60
2022-07-27T12:36:40.405Z,22.57
2022-07-27T12:37:38.362Z,22.54
2022-07-27T12:38:38.354Z,22.66
2022-07-27T12:39:38.349Z,22.80
2022-07-27T12:40:38.359Z,22.96
2022-07-27T12:41:38.348Z,23.05
2022-07-27T12:42:38.316Z,23.17
2022-07-27T12:43:38.304Z,23.68
2022-07-27T12:44:38.296Z,24.13
2022-07-27T12:45:38.343Z,24.50
2022-07-27T12:46:38.304Z,24.89
2022-07-27T12:47:38.270Z,24.88
2022-07-27T12:48:38.311Z,25.23
2022-07-27T12:49:41.940Z,25.53
2022-07-27T12:50:39.258Z,25.69
2022-07-27T12:51:38.266Z,25.28
2022-07-27T12:52:38.234Z,24.88
2022-07-27T12:53:38.232Z,24.80
2022-07-27T12:54:38.221Z,23.87
2022-07-27T12:55:38.207Z,23.05